BOS weather

General Edward Lawrence Logan International Airport
Boston, Massachusetts, United States

Public forecast

Using degrees Fahrenheit for public forecast. Weather courtesy of forecast.io.

METAR (pilot weather report)

Retrieved 2019/04/21 11:54 UTC (37 minutes ago):

KBOS 211154Z 21005KT 9SM -RA FEW020 BKN060 OVC140 16/13 A3002 RMK AO2 RAB29 SLP164 P0000 60002 70017 T01560133 10183 20139 51016

TAF (pilot weather forecast)

Retrieved 2019/04/21 12:31 UTC (20 seconds ago):

TAF KBOS 211129Z 2112/2218 15005KT P6SM VCSH OVC040 FM211700 12008KT P6SM VCSH OVC025 FM211900 14008KT P6SM OVC015 FM212200 16008KT P6SM BKN060 FM220300 22005KT P6SM BKN100 FM221000 35004KT P6SM BKN150 FM221300 03005KT P6SM VCSH BKN060